Allwood, New Jersey
Current Conditions -  °F | °C
As of 3:51 AM on Thursday 23 Oct 2014 (Local Time) from KTEB Reporting Station
Light Rain Light Rain  
Wind Chill: 53°   Ceiling: 2200
Heat Index: 53°   Visibility: 10mi
Dew Point: 45°   Wind: 14mph
Humidity: 74%   Direction: 360°N
Pressure: 29.7"   Gusts: 25mph
Location:  40.8469°N, 74.1593°W
Report Text: KTEB 230751Z 36012G22KT 10SM -RA BKN022 OVC027 12/07 A2970 RMK AO2 PK WND 01026/0707 RAB44 SLP057 P0000 T01170072 $
Loading
Personal Weather Stations






























Interactive Weather Map New forecast layout! Learn more

10-Day Weather Forecast

Advertisements
Track Severe Weather on mobile